Time;durP1;ratioP1;P1;durP2;ratioP2;P2;SDS_P1;SDS_P2;PMS_P1;PMS_P2;Temp;Humidity;BMP_temperature;BMP_pressure;BME280_temperature;BME280_humidity;BME280_pressure;Samples;Min_cycle;Max_cycle;Signal;HPM_P1;HPM_P2
2021/10/31 00:02:09;;;;;;;39.92;26.07;;;;;;;9.26;99.28;101922.88;1708218;83;20924;-65
2021/10/31 00:04:35;;;;;;;41.98;26.80;;;;;;;9.41;96.12;101921.53;1707969;83;20992;-75
2021/10/31 00:07:03;;;;;;;42.33;25.60;;;;;;;9.33;96.12;101920.56;1707447;83;21046;-70
2021/10/31 00:09:29;;;;;;;40.70;25.32;;;;;;;9.20;97.36;101923.39;1713166;82;21316;-65
2021/10/31 00:11:57;;;;;;;38.15;25.17;;;;;;;9.24;97.10;101921.72;1716754;82;21098;-66
2021/10/31 00:14:23;;;;;;;43.00;26.65;;;;;;;9.32;96.38;101921.05;1712192;82;20996;-68
2021/10/31 00:16:57;;;;;;;45.33;26.05;;;;;;;9.28;97.17;101920.98;1714885;82;20995;-65
2021/10/31 00:19:20;;;;;;;47.73;27.73;;;;;;;9.30;97.14;101917.75;1719792;82;21074;-67
2021/10/31 00:21:46;;;;;;;43.87;27.30;;;;;;;9.26;97.12;101921.57;1711488;82;21063;-65
2021/10/31 00:24:12;;;;;;;46.10;28.32;;;;;;;9.17;97.53;101921.91;1708425;83;21160;-66
2021/10/31 00:26:39;;;;;;;47.15;29.75;;;;;;;9.08;99.17;101921.86;1713492;82;21015;-73
2021/10/31 00:29:06;;;;;;;47.60;28.83;;;;;;;8.96;99.81;101922.44;1707433;83;20976;-66
2021/10/31 00:31:33;;;;;;;62.27;43.35;;;;;;;9.11;98.22;101922.91;1711564;82;21106;-65
2021/10/31 00:33:59;;;;;;;70.00;47.15;;;;;;;9.13;96.44;101922.27;1708425;83;21015;-66
2021/10/31 00:36:26;;;;;;;84.30;54.48;;;;;;;9.16;95.77;101920.72;1719325;82;22223;-66
2021/10/31 00:38:53;;;;;;;53.50;32.83;;;;;;;9.22;94.90;101918.89;1707930;83;21026;-73
2021/10/31 00:41:19;;;;;;;44.70;28.52;;;;;;;8.94;98.59;101917.38;1718329;82;20943;-66
2021/10/31 00:43:46;;;;;;;44.42;27.22;;;;;;;9.23;99.81;101922.66;1712814;82;20980;-66
2021/10/31 00:46:13;;;;;;;43.95;25.85;;;;;;;9.67;96.69;101919.73;1716821;82;21002;-65
2021/10/31 00:48:40;;;;;;;48.28;31.52;;;;;;;9.94;94.58;101922.94;1708931;82;21172;-73
2021/10/31 00:51:06;;;;;;;50.63;33.08;;;;;;;9.57;98.20;101922.79;1706931;83;20943;-66
2021/10/31 00:53:33;;;;;;;48.38;29.52;;;;;;;9.69;95.42;101921.22;1708492;83;21559;-66
2021/10/31 00:56:00;;;;;;;42.48;27.40;;;;;;;9.12;100.00;101924.54;1708394;83;21035;-66
2021/10/31 00:58:27;;;;;;;44.08;27.87;;;;;;;9.07;100.00;101917.63;1708896;83;21437;-65
2021/10/31 01:00:54;;;;;;;41.50;26.73;;;;;;;9.45;98.14;101915.58;1707378;83;21139;-74
2021/10/31 01:03:20;;;;;;;43.98;29.45;;;;;;;9.34;98.56;101913.09;1708059;83;21740;-67
2021/10/31 01:05:51;;;;;;;45.75;27.73;;;;;;;9.23;100.00;101914.03;1702861;83;22374;-64
2021/10/31 01:08:49;;;;;;;45.28;27.15;;;;;;;9.34;100.00;101913.92;1708664;83;21019;-66
2021/10/31 01:11:33;;;;;;;44.73;27.93;;;;;;;9.12;100.00;101912.83;1708317;83;21141;-65
2021/10/31 01:14:29;;;;;;;38.30;25.50;;;;;;;9.63;97.66;101905.33;1699587;83;21303;-67
2021/10/31 01:17:05;;;;;;;42.30;27.27;;;;;;;9.70;96.32;101903.83;1698738;83;21466;-65
2021/10/31 01:19:46;;;;;;;48.95;27.55;;;;;;;9.77;94.54;101902.30;1660343;83;21047;-73
2021/10/31 01:22:35;;;;;;;51.48;28.45;;;;;;;9.93;92.09;101901.77;1708330;83;21081;-65
2021/10/31 01:25:49;;;;;;;41.08;26.55;;;;;;;9.89;90.53;101905.13;1699280;83;21011;-75
2021/10/31 01:28:26;;;;;;;42.20;26.70;;;;;;;10.03;88.95;101899.14;1607248;88;21791;-67
2021/10/31 01:31:04;;;;;;;43.60;27.75;;;;;;;9.87;88.73;101895.31;1697500;83;22298;-68
2021/10/31 01:34:05;;;;;;;43.10;26.42;;;;;;;9.99;88.90;101896.80;1705144;83;20948;-65
2021/10/31 01:36:50;;;;;;;41.63;25.27;;;;;;;9.75;90.72;101893.82;1708009;83;21015;-65
2021/10/31 01:39:21;;;;;;;45.73;29.27;;;;;;;9.97;90.60;101892.23;1708612;83;21015;-72
2021/10/31 01:42:02;;;;;;;;;;;;;;;10.12;89.87;101892.62;1708886;83;21173;-69
2021/10/31 01:44:44;;;;;;;44.20;28.42;;;;;;;10.13;90.72;101892.96;1708223;83;20397;-66
2021/10/31 01:47:28;;;;;;;47.38;27.22;;;;;;;10.26;88.62;101891.37;1701027;83;25279;-65
2021/10/31 01:50:10;;;;;;;43.60;29.50;;;;;;;10.12;89.27;101893.11;1701539;83;21094;-64
2021/10/31 01:52:53;;;;;;;40.25;27.65;;;;;;;9.89;90.80;101900.41;1708558;83;21553;-73
2021/10/31 01:55:22;;;;;;;42.98;28.80;;;;;;;9.33;96.20;101890.64;1708398;83;21169;-64
2021/10/31 01:57:52;;;;;;;42.10;28.52;;;;;;;9.76;94.08;101891.55;1697337;83;21431;-67
2021/10/31 02:00:19;;;;;;;42.40;27.82;;;;;;;9.05;99.96;101894.81;1679978;83;20960;-66
2021/10/31 02:02:46;;;;;;;46.08;28.00;;;;;;;9.56;95.13;101897.72;1708049;83;21094;-67
2021/10/31 02:05:19;;;;;;;47.10;28.52;;;;;;;9.58;93.05;101895.78;1690813;82;20978;-64
2021/10/31 02:07:50;;;;;;;45.98;27.85;;;;;;;9.61;90.18;101895.03;1728498;81;21147;-63
2021/10/31 02:10:17;;;;;;;47.95;28.73;;;;;;;9.73;89.80;101898.33;1728415;81;20979;-65
2021/10/31 02:12:46;;;;;;;44.30;27.45;;;;;;;9.82;89.53;101901.42;1699411;81;21097;-65
2021/10/31 02:15:17;;;;;;;41.55;28.52;;;;;;;9.87;88.24;101897.92;1728941;81;21064;-63
2021/10/31 02:17:50;;;;;;;45.33;28.15;;;;;;;9.74;88.78;101892.19;1728821;81;21066;-64
2021/10/31 02:20:17;;;;;;;46.28;28.75;;;;;;;9.91;87.25;101895.38;1728093;82;21183;-64
2021/10/31 02:22:58;;;;;;;47.23;28.83;;;;;;;10.04;84.39;101887.75;1727955;81;20958;-64
2021/10/31 02:25:25;;;;;;;45.15;28.20;;;;;;;9.91;84.23;101891.47;1728806;82;20943;-64
2021/10/31 02:27:51;;;;;;;40.45;27.30;;;;;;;9.39;88.11;101894.80;1728140;81;21106;-64
2021/10/31 02:30:18;;;;;;;45.10;28.17;;;;;;;9.35;90.36;101892.61;1728733;81;21080;-64
2021/10/31 02:32:44;;;;;;;41.58;28.77;;;;;;;9.48;88.93;101887.98;1728077;81;21071;-64
2021/10/31 02:35:12;;;;;;;40.52;26.40;;;;;;;9.52;88.05;101889.36;1721841;82;21043;-65
2021/10/31 02:37:40;;;;;;;56.33;34.95;;;;;;;9.42;88.24;101892.42;1728258;81;21058;-74
2021/10/31 02:40:10;;;;;;;58.23;36.30;;;;;;;9.43;85.01;101896.66;1741670;81;21145;-66
2021/10/31 02:42:37;;;;;;;56.95;34.58;;;;;;;9.37;82.71;101891.53;1730867;81;21512;-69
2021/10/31 02:45:05;;;;;;;47.73;31.40;;;;;;;9.28;82.50;101884.55;1738366;81;21125;-67
2021/10/31 02:47:42;;;;;;;51.80;32.15;;;;;;;9.15;83.22;101891.77;1731264;81;21619;-69
2021/10/31 02:50:17;;;;;;;52.70;33.65;;;;;;;8.99;83.45;101887.89;1728842;81;20939;-65
2021/10/31 02:53:29;;;;;;;51.98;32.53;;;;;;;8.83;84.11;101887.57;1698709;82;21068;-65
2021/10/31 02:56:11;;;;;;;;;;;;;;;8.65;86.07;101887.35;1731101;81;21165;-63
2021/10/31 02:58:40;;;;;;;;;;;;;;;8.84;81.88;101887.91;1730968;81;21186;-65
2021/10/31 03:01:07;;;;;;;55.20;37.08;;;;;;;8.95;79.87;101889.59;1728853;81;20641;-66
2021/10/31 03:03:35;;;;;;;49.70;32.60;;;;;;;8.88;78.48;101886.69;1727992;81;20908;-65
2021/10/31 03:06:03;;;;;;;56.20;35.40;;;;;;;8.75;79.69;101880.87;1721160;82;21000;-64
2021/10/31 03:08:30;;;;;;;49.18;32.08;;;;;;;8.68;80.19;101878.48;1717738;83;21003;-64
2021/10/31 03:11:02;;;;;;;42.33;28.73;;;;;;;8.58;80.37;101877.13;1718259;82;21161;-71
2021/10/31 03:13:29;;;;;;;46.00;28.87;;;;;;;8.61;81.18;101870.86;1718386;82;21062;-63
2021/10/31 03:15:55;;;;;;;45.38;29.90;;;;;;;8.66;82.26;101872.09;1718358;82;21516;-64
2021/10/31 03:18:22;;;;;;;42.13;26.15;;;;;;;8.62;85.76;101865.52;1717838;82;21470;-66
2021/10/31 03:20:49;;;;;;;44.88;27.82;;;;;;;8.69;86.72;101867.13;1718132;82;21173;-71
2021/10/31 03:23:16;;;;;;;43.40;29.05;;;;;;;8.63;88.03;101870.23;1712603;82;21134;-65
2021/10/31 03:25:43;;;;;;;43.42;27.00;;;;;;;8.63;89.99;101868.94;1718422;83;21018;-66
2021/10/31 03:28:10;;;;;;;46.65;29.45;;;;;;;8.62;89.90;101865.99;1717614;82;20943;-62
2021/10/31 03:30:37;;;;;;;43.15;28.25;;;;;;;8.59;90.20;101870.15;1718303;82;21568;-64
2021/10/31 03:33:03;;;;;;;52.25;29.80;;;;;;;8.55;90.17;101870.06;1718380;82;21027;-74
2021/10/31 03:35:30;;;;;;;44.30;28.07;;;;;;;8.42;89.51;101862.50;1718030;82;21147;-64
2021/10/31 03:37:57;;;;;;;45.67;30.55;;;;;;;8.33;88.22;101866.63;1718198;82;21051;-65
2021/10/31 03:40:23;;;;;;;46.90;29.75;;;;;;;8.36;85.39;101867.69;1718116;83;20963;-64
2021/10/31 03:42:50;;;;;;;41.48;28.40;;;;;;;8.35;83.07;101871.24;1718174;82;21015;-66
2021/10/31 03:45:17;;;;;;;42.23;28.15;;;;;;;8.39;80.49;101871.36;1717909;83;21062;-66
2021/10/31 03:47:47;;;;;;;47.78;28.92;;;;;;;8.41;77.22;101866.88;1718517;82;21133;-67
2021/10/31 03:50:14;;;;;;;40.80;24.77;;;;;;;8.28;77.50;101856.63;1717399;82;20911;-65
2021/10/31 03:52:42;;;;;;;42.67;25.80;;;;;;;8.26;77.53;101855.95;1717562;82;21514;-71
2021/10/31 03:55:10;;;;;;;43.80;26.35;;;;;;;8.27;80.07;101856.77;1716262;82;21556;-68
2021/10/31 03:57:37;;;;;;;45.20;28.45;;;;;;;8.26;84.46;101855.14;1717334;82;21106;-67
2021/10/31 04:00:23;;;;;;;41.98;26.50;;;;;;;8.36;87.58;101855.17;1715257;82;21568;-67
2021/10/31 04:02:50;;;;;;;40.78;26.02;;;;;;;8.52;88.98;101860.30;1699427;82;21029;-71
2021/10/31 04:05:18;;;;;;;45.12;28.70;;;;;;;8.37;91.73;101850.31;1720008;82;21107;-66
2021/10/31 04:07:44;;;;;;;40.60;27.20;;;;;;;8.58;90.77;101843.34;1710367;82;21120;-66
2021/10/31 04:10:11;;;;;;;43.90;27.37;;;;;;;8.59;90.99;101842.38;1720686;82;21102;-65
2021/10/31 04:12:39;;;;;;;45.92;27.00;;;;;;;8.82;89.21;101844.30;1706716;82;22166;-71
2021/10/31 04:15:07;;;;;;;46.73;29.12;;;;;;;8.20;95.23;101840.88;1718696;81;20971;-67
2021/10/31 04:17:34;;;;;;;42.70;26.60;;;;;;;8.25;97.71;101841.30;1714163;82;21022;-71
2021/10/31 04:20:00;;;;;;;37.28;25.48;;;;;;;8.18;97.89;101839.34;1723435;81;21655;-66
2021/10/31 04:22:30;;;;;;;44.27;28.75;;;;;;;8.33;98.22;101834.64;1710351;83;21134;-67
2021/10/31 04:24:58;;;;;;;44.33;28.52;;;;;;;8.25;97.26;101833.98;1719373;81;21150;-67
2021/10/31 04:27:25;;;;;;;43.68;27.27;;;;;;;8.10;98.38;101836.09;1702780;82;21101;-72
2021/10/31 04:29:53;;;;;;;37.60;24.72;;;;;;;8.31;96.38;101836.08;1700165;82;21454;-66
2021/10/31 04:32:19;;;;;;;39.75;26.93;;;;;;;8.48;95.79;101830.29;1696786;83;21705;-66
2021/10/31 04:34:46;;;;;;;44.58;27.70;;;;;;;8.64;94.17;101827.23;1702474;82;21028;-66
2021/10/31 04:37:12;;;;;;;41.73;25.82;;;;;;;8.84;93.95;101829.40;1697788;83;21165;-67
2021/10/31 04:39:41;;;;;;;43.08;25.80;;;;;;;9.00;94.15;101828.88;1696133;82;21117;-71
2021/10/31 04:42:09;;;;;;;38.02;25.23;;;;;;;8.94;93.80;101823.75;1698603;83;21550;-67
2021/10/31 04:44:37;;;;;;;41.63;26.02;;;;;;;9.00;98.62;101827.58;1697138;82;21010;-67
2021/10/31 04:47:04;;;;;;;41.15;25.00;;;;;;;9.35;95.48;101826.25;1702012;82;21014;-69
2021/10/31 04:49:31;;;;;;;40.15;26.52;;;;;;;9.72;91.40;101828.98;1709865;82;21117;-72
2021/10/31 04:51:58;;;;;;;38.90;26.33;;;;;;;9.84;91.01;101825.27;1692797;82;20999;-68
2021/10/31 04:54:24;;;;;;;43.92;28.40;;;;;;;9.48;95.17;101834.14;1710476;82;21055;-68
2021/10/31 04:56:50;;;;;;;43.90;25.50;;;;;;;9.89;92.91;101829.59;1692760;83;21010;-67
2021/10/31 04:59:17;;;;;;;38.88;25.60;;;;;;;10.14;89.01;101826.84;1707119;82;21028;-68
2021/10/31 05:01:45;;;;;;;37.73;23.85;;;;;;;10.26;89.34;101834.52;1690438;83;21173;-71
2021/10/31 05:04:12;;;;;;;43.83;27.85;;;;;;;10.46;87.32;101834.33;1647364;85;21043;-68
2021/10/31 05:06:40;;;;;;;41.73;26.55;;;;;;;10.54;87.10;101834.91;1674639;83;21086;-68
2021/10/31 05:09:06;;;;;;;35.75;24.00;;;;;;;10.65;87.84;101826.09;1666528;84;21027;-69
2021/10/31 05:11:33;;;;;;;39.27;24.92;;;;;;;11.03;84.49;101826.34;1674511;84;21101;-69
2021/10/31 05:14:01;;;;;;;39.92;27.15;;;;;;;11.32;80.05;101826.61;1664180;84;21117;-69
2021/10/31 05:16:28;;;;;;;36.83;25.65;;;;;;;11.48;80.23;101824.16;1674428;84;21092;-68
2021/10/31 05:18:55;;;;;;;40.12;27.00;;;;;;;11.94;79.87;101824.86;1674769;84;21082;-70
2021/10/31 05:21:22;;;;;;;38.70;24.43;;;;;;;12.50;78.05;101826.16;1671704;84;20963;-68
2021/10/31 05:23:49;;;;;;;36.10;25.88;;;;;;;13.00;73.65;101821.89;1673429;84;21604;-72
2021/10/31 05:26:16;;;;;;;41.83;27.70;;;;;;;13.37;64.46;101819.69;1668330;84;21155;-69
2021/10/31 05:28:42;;;;;;;35.48;27.32;;;;;;;13.49;61.86;101824.60;1672435;84;21608;-71
2021/10/31 05:31:09;;;;;;;42.17;27.15;;;;;;;13.84;60.29;101819.50;1659262;84;21039;-70
2021/10/31 05:33:36;;;;;;;37.88;25.88;;;;;;;14.32;57.75;101817.25;1673225;84;21109;-70
2021/10/31 05:36:03;;;;;;;31.73;23.62;;;;;;;14.99;54.68;101818.59;1673906;84;21011;-70
2021/10/31 05:38:30;;;;;;;34.65;24.63;;;;;;;15.71;51.79;101810.34;1674272;84;21093;-70
2021/10/31 05:40:56;;;;;;;33.67;24.27;;;;;;;16.24;49.32;101815.87;1675979;84;20952;-70
2021/10/31 05:43:23;;;;;;;32.43;24.10;;;;;;;16.59;48.19;101810.83;1675887;84;21190;-71
2021/10/31 05:45:50;;;;;;;35.33;26.20;;;;;;;16.78;46.71;101807.67;1685919;84;21325;-72
2021/10/31 05:48:17;;;;;;;34.43;25.53;;;;;;;17.12;44.52;101814.09;1690268;84;21542;-69
2021/10/31 05:50:43;;;;;;;35.93;26.83;;;;;;;17.25;43.75;101812.08;1685808;84;21368;-68
2021/10/31 05:53:10;;;;;;;35.57;25.90;;;;;;;17.55;41.78;101819.33;1683512;84;21881;-68
2021/10/31 05:55:37;;;;;;;36.83;25.47;;;;;;;17.75;40.90;101826.91;1678355;84;22048;-71
2021/10/31 05:58:04;;;;;;;39.70;27.13;;;;;;;17.75;40.90;101826.91;1673342;84;21653;-69
2021/10/31 06:00:32;;;;;;;33.73;25.37;;;;;;;17.87;40.32;101823.74;1669031;84;21831;-68
2021/10/31 06:02:59;;;;;;;35.03;25.40;;;;;;;17.91;40.09;101823.66;1673163;83;21655;-67
2021/10/31 06:05:26;;;;;;;36.43;26.13;;;;;;;17.93;40.38;101824.30;1666958;84;21823;-67
2021/10/31 06:07:55;;;;;;;34.83;25.10;;;;;;;18.20;40.30;101854.30;1676958;84;21814;-71
2021/10/31 06:10:21;;;;;;;33.13;24.17;;;;;;;17.98;40.65;101819.25;1671360;84;21129;-69
2021/10/31 06:12:48;;;;;;;32.30;25.70;;;;;;;17.70;40.68;101822.69;1665967;84;21848;-68
2021/10/31 06:15:17;;;;;;;31.17;23.83;;;;;;;18.11;40.41;101818.53;1676915;84;21137;-72
2021/10/31 06:17:45;;;;;;;36.90;27.67;;;;;;;18.33;40.16;101813.44;1664052;84;22501;-72
2021/10/31 06:20:15;;;;;;;32.43;24.40;;;;;;;18.55;38.85;101814.66;1674241;84;21086;-69
2021/10/31 06:22:42;;;;;;;32.60;26.10;;;;;;;18.55;38.44;101815.47;1672508;84;21109;-68
2021/10/31 06:25:10;;;;;;;32.23;23.40;;;;;;;18.32;38.53;101813.65;1668789;84;21639;-69
2021/10/31 06:27:39;;;;;;;33.87;25.03;;;;;;;18.90;37.69;101812.75;1669657;84;21466;-72
2021/10/31 06:30:07;;;;;;;29.27;22.07;;;;;;;18.55;38.01;101810.19;1661579;84;21101;-70
2021/10/31 06:32:35;;;;;;;27.87;21.67;;;;;;;18.75;38.52;101807.63;1668436;84;20981;-70
2021/10/31 06:35:01;;;;;;;26.97;23.20;;;;;;;19.23;37.77;101803.56;1672628;84;20999;-68
2021/10/31 06:37:28;;;;;;;29.20;23.20;;;;;;;19.67;37.00;101799.52;1667231;84;21555;-70
2021/10/31 06:39:55;;;;;;;29.93;23.63;;;;;;;19.76;36.52;101800.92;1670691;84;21861;-70
2021/10/31 06:42:24;;;;;;;31.57;22.90;;;;;;;19.93;36.42;101787.56;1674410;84;21587;-69
2021/10/31 06:44:51;;;;;;;29.27;22.63;;;;;;;20.26;36.27;101788.47;1670501;84;21010;-72
2021/10/31 06:47:17;;;;;;;30.13;24.73;;;;;;;20.64;35.11;101785.35;1681588;84;21026;-70
2021/10/31 06:49:45;;;;;;;33.07;24.17;;;;;;;20.39;34.60;101789.23;1667352;84;21074;-69
2021/10/31 06:52:12;;;;;;;28.47;22.77;;;;;;;20.30;34.71;101789.67;1668561;84;22119;-69
2021/10/31 06:54:39;;;;;;;30.47;23.43;;;;;;;20.33;34.82;101786.61;1673616;84;22365;-69
2021/10/31 06:57:06;;;;;;;25.63;21.20;;;;;;;20.43;34.41;101779.55;1666024;84;21039;-67
2021/10/31 06:59:33;;;;;;;24.27;20.63;;;;;;;20.37;34.44;101782.52;1666061;84;21017;-70
2021/10/31 07:02:00;;;;;;;25.53;19.33;;;;;;;20.29;34.86;101777.45;1670734;84;21538;-69
2021/10/31 07:04:30;;;;;;;26.80;19.93;;;;;;;20.39;34.74;101777.83;1687348;83;20977;-68
2021/10/31 07:06:58;;;;;;;26.13;18.60;;;;;;;20.53;34.40;101774.62;1687091;83;21506;-70
2021/10/31 07:09:26;;;;;;;24.77;20.87;;;;;;;20.35;34.83;101772.66;1686009;83;21602;-68
2021/10/31 07:11:53;;;;;;;28.10;22.33;;;;;;;20.17;34.75;101774.14;1687006;83;21119;-68
2021/10/31 07:14:20;;;;;;;30.30;22.93;;;;;;;20.14;34.84;101769.77;1687379;83;21099;-69
2021/10/31 07:16:47;;;;;;;34.33;23.03;;;;;;;20.32;34.62;101766.45;1687286;83;21180;-70
2021/10/31 07:19:13;;;;;;;28.93;22.13;;;;;;;20.44;34.47;101770.05;1687277;83;20972;-69
2021/10/31 07:21:40;;;;;;;26.43;20.90;;;;;;;20.34;34.85;101763.06;1686323;83;21031;-69
2021/10/31 07:24:07;;;;;;;26.40;20.40;;;;;;;20.20;34.67;101757.03;1687267;83;22268;-68
2021/10/31 07:26:35;;;;;;;24.93;18.43;;;;;;;20.59;34.41;101767.97;1687114;83;21044;-73
2021/10/31 07:29:02;;;;;;;23.47;17.23;;;;;;;20.68;34.27;101754.46;1687151;83;21209;-67
2021/10/31 07:31:33;;;;;;;27.47;18.30;;;;;;;20.62;34.49;101756.14;1693127;83;20953;-68
2021/10/31 07:34:01;;;;;;;24.43;17.73;;;;;;;20.60;34.44;101756.85;1679235;83;21080;-67
2021/10/31 07:36:27;;;;;;;27.63;19.43;;;;;;;20.53;34.61;101760.88;1687428;83;21029;-70
2021/10/31 07:38:54;;;;;;;26.33;18.93;;;;;;;20.90;34.27;101759.72;1699019;83;21533;-72
2021/10/31 07:41:20;;;;;;;22.87;18.13;;;;;;;21.17;33.67;101750.23;1690729;83;21244;-71
2021/10/31 07:43:47;;;;;;;23.30;17.63;;;;;;;21.24;33.57;101754.45;1691428;83;22466;-72
2021/10/31 07:46:14;;;;;;;25.10;18.00;;;;;;;21.35;33.38;101752.97;1688878;83;21084;-72
2021/10/31 07:48:41;;;;;;;24.43;18.60;;;;;;;21.33;33.52;101750.55;1684221;83;21082;-71
2021/10/31 07:51:09;;;;;;;26.73;20.33;;;;;;;21.11;33.67;101755.91;1685740;83;20991;-71
2021/10/31 07:53:39;;;;;;;24.07;18.20;;;;;;;20.77;34.03;101754.01;1686554;83;21098;-70
2021/10/31 07:56:04;;;;;;;21.03;16.47;;;;;;;20.75;34.23;101756.56;1686632;83;21585;-69
2021/10/31 07:58:31;;;;;;;23.53;17.37;;;;;;;20.85;34.08;101752.94;1692708;83;21092;-68
2021/10/31 08:00:57;;;;;;;22.13;17.40;;;;;;;21.44;33.71;101742.39;1693577;83;20999;-70
2021/10/31 08:03:24;;;;;;;23.13;17.93;;;;;;;21.28;33.68;101741.05;1693508;83;21533;-71
2021/10/31 08:05:51;;;;;;;23.97;18.40;;;;;;;21.71;33.20;101743.45;1695312;83;21151;-69
2021/10/31 08:08:17;;;;;;;24.23;17.30;;;;;;;21.83;32.80;101737.69;1691497;83;21092;-69
2021/10/31 08:10:46;;;;;;;25.40;16.70;;;;;;;21.81;32.72;101734.44;1689576;83;21016;-69
2021/10/31 08:13:25;;;;;;;20.87;15.60;;;;;;;21.95;32.77;101745.20;1690883;83;21101;-70
2021/10/31 08:15:54;;;;;;;17.27;13.60;;;;;;;21.66;33.06;101744.61;1689495;83;21021;-69
2021/10/31 08:18:21;;;;;;;16.30;12.83;;;;;;;21.72;32.70;101737.10;1698562;83;22018;-70
2021/10/31 08:20:48;;;;;;;19.70;13.83;;;;;;;21.71;32.94;101731.51;1687741;83;21033;-71
2021/10/31 08:23:15;;;;;;;15.73;12.00;;;;;;;22.06;32.50;101731.18;1695203;83;21154;-69
2021/10/31 08:25:43;;;;;;;14.03;10.53;;;;;;;21.99;32.71;101731.77;1697568;83;20957;-69
2021/10/31 08:28:11;;;;;;;14.27;10.07;;;;;;;22.02;32.64;101737.97;1691430;83;21003;-68
2021/10/31 08:30:41;;;;;;;14.83;10.10;;;;;;;22.05;32.26;101734.87;1695971;83;21136;-70
2021/10/31 08:33:18;;;;;;;14.00;8.80;;;;;;;21.65;32.92;101731.86;1688865;83;20976;-68
2021/10/31 08:35:35;;;;;;;12.57;9.03;;;;;;;21.77;32.56;101727.95;1695585;83;21479;-69
2021/10/31 08:38:03;;;;;;;14.30;8.20;;;;;;;21.49;33.04;101741.21;1698264;82;20988;-70
2021/10/31 08:40:29;;;;;;;14.73;9.50;;;;;;;21.87;32.71;101713.66;1696791;82;21036;-70
2021/10/31 08:42:56;;;;;;;14.30;9.50;;;;;;;22.02;32.57;101719.38;1697109;83;21127;-65
2021/10/31 08:45:22;;;;;;;13.20;9.60;;;;;;;22.23;32.23;101710.66;1694432;83;20967;-67
2021/10/31 08:47:48;;;;;;;13.87;8.80;;;;;;;22.02;32.33;101702.65;1686133;83;21636;-67
2021/10/31 08:50:15;;;;;;;11.83;6.17;;;;;;;22.28;32.42;101702.33;1695710;83;21447;-69
2021/10/31 08:52:42;;;;;;;9.23;6.20;;;;;;;22.54;31.57;101705.63;1691969;83;21001;-70
2021/10/31 08:55:09;;;;;;;11.57;6.80;;;;;;;22.78;30.90;101683.38;1695873;83;21165;-69
2021/10/31 08:57:39;;;;;;;11.10;6.30;;;;;;;22.83;30.89;101684.82;1691496;83;21007;-69
2021/10/31 09:00:07;;;;;;;11.13;6.90;;;;;;;22.95;30.45;101685.38;1693872;83;21056;-70
2021/10/31 09:02:36;;;;;;;8.83;6.20;;;;;;;22.65;30.88;101686.23;1695493;83;21074;-72
2021/10/31 09:05:06;;;;;;;9.83;6.17;;;;;;;22.56;30.66;101676.98;1669832;84;21070;-69
2021/10/31 09:07:32;;;;;;;10.03;6.93;;;;;;;22.49;30.69;101673.09;1674524;84;21146;-71
2021/10/31 09:09:59;;;;;;;9.77;6.30;;;;;;;22.32;30.96;101678.78;1668725;84;20979;-70
2021/10/31 09:12:26;;;;;;;15.37;7.53;;;;;;;22.15;31.25;101670.63;1672306;84;21089;-68
2021/10/31 09:14:53;;;;;;;10.20;6.83;;;;;;;22.04;31.32;101677.99;1667140;84;21789;-68
2021/10/31 09:17:22;;;;;;;9.23;6.47;;;;;;;21.98;31.38;101677.06;1671168;84;21071;-66
2021/10/31 09:19:50;;;;;;;9.40;6.30;;;;;;;21.91;31.53;101667.03;1676963;84;20869;-67
2021/10/31 09:22:16;;;;;;;11.63;7.83;;;;;;;21.95;31.39;101666.88;1669294;84;21474;-69
2021/10/31 09:24:43;;;;;;;10.67;7.67;;;;;;;21.86;31.27;101665.58;1673540;84;21687;-71
2021/10/31 09:27:09;;;;;;;9.67;7.37;;;;;;;21.79;31.49;101655.56;1665561;84;21049;-67
2021/10/31 09:29:36;;;;;;;10.53;6.93;;;;;;;21.97;31.51;101661.34;1667627;84;21134;-67
2021/10/31 09:32:03;;;;;;;8.87;6.93;;;;;;;21.92;31.31;101652.72;1664026;84;21124;-68
2021/10/31 09:34:30;;;;;;;11.63;8.47;;;;;;;21.83;31.56;101648.77;1663468;84;20911;-68
2021/10/31 09:36:57;;;;;;;10.90;7.43;;;;;;;21.84;31.49;101648.53;1663445;84;21065;-69
2021/10/31 09:39:25;;;;;;;10.33;7.60;;;;;;;21.75;31.72;101646.42;1664067;84;22263;-70
2021/10/31 09:41:51;;;;;;;9.63;7.03;;;;;;;21.60;31.90;101638.84;1664970;84;21063;-68
2021/10/31 09:44:30;;;;;;;10.77;8.77;;;;;;;21.73;31.89;101636.53;1664351;84;21141;-68
2021/10/31 09:46:52;;;;;;;10.67;7.57;;;;;;;22.08;31.34;101618.89;1661791;84;21021;-69
2021/10/31 09:49:18;;;;;;;11.30;8.23;;;;;;;22.20;31.13;101628.77;1664258;84;21117;-68
2021/10/31 09:51:49;;;;;;;14.43;10.77;;;;;;;22.23;31.12;101633.11;1664392;84;20974;-69
2021/10/31 09:54:16;;;;;;;15.60;12.53;;;;;;;22.37;31.08;101624.44;1637718;84;21586;-69
2021/10/31 09:56:43;;;;;;;7.57;6.00;;;;;;;22.69;30.75;101625.45;1663907;84;21145;-68
2021/10/31 09:59:12;;;;;;;7.93;5.70;;;;;;;22.87;30.24;101614.72;1663209;84;21418;-69
2021/10/31 10:04:33;;;;;;;8.83;5.30;;;;;;;22.73;30.23;101608.00;1662882;84;21023;-70
2021/10/31 10:07:02;;;;;;;8.03;4.97;;;;;;;22.61;30.38;101606.67;1664391;84;21189;-70
2021/10/31 10:09:30;;;;;;;10.00;5.67;;;;;;;22.38;30.69;101604.80;1665135;84;21919;-66
2021/10/31 10:11:58;;;;;;;11.20;6.47;;;;;;;22.41;30.62;101599.55;1663136;84;21003;-69
2021/10/31 10:14:29;;;;;;;8.07;5.60;;;;;;;22.38;30.77;101597.34;1662612;84;21027;-69
2021/10/31 10:17:05;;;;;;;8.13;5.40;;;;;;;22.41;30.71;101594.23;1663619;84;20991;-69
2021/10/31 10:19:35;;;;;;;7.27;5.10;;;;;;;22.43;30.74;101581.02;1664203;84;21101;-70
2021/10/31 10:22:07;;;;;;;9.13;6.05;;;;;;;22.30;31.06;101584.69;1663595;84;21556;-71
2021/10/31 10:24:38;;;;;;;9.13;5.97;;;;;;;22.24;31.13;101575.52;1664157;84;21660;-70
2021/10/31 10:27:07;;;;;;;11.60;6.33;;;;;;;22.38;31.03;101583.54;1664194;84;21102;-69
2021/10/31 10:29:38;;;;;;;7.70;5.80;;;;;;;22.22;31.02;101584.22;1665158;84;21101;-69
2021/10/31 10:32:12;;;;;;;10.30;6.07;;;;;;;22.24;31.01;101570.20;1663310;84;21085;-68
2021/10/31 10:34:51;;;;;;;7.53;5.33;;;;;;;22.27;31.04;101571.85;1664155;84;21174;-69
2021/10/31 10:37:30;;;;;;;11.50;6.70;;;;;;;22.17;31.09;101566.84;1659767;84;21587;-70
2021/10/31 10:40:06;;;;;;;12.47;6.80;;;;;;;22.09;31.24;101561.30;1665300;84;21377;-69
2021/10/31 10:42:40;;;;;;;8.20;5.60;;;;;;;22.18;31.19;101555.97;1664100;84;21038;-69
2021/10/31 10:45:09;;;;;;;10.50;6.43;;;;;;;22.33;30.96;101558.19;1664360;84;21472;-69
2021/10/31 10:47:44;;;;;;;8.33;5.30;;;;;;;22.32;30.96;101551.27;1674139;84;25250;-68
2021/10/31 10:50:18;;;;;;;7.57;5.53;;;;;;;22.32;30.96;101551.27;1663819;84;21331;-67
2021/10/31 10:52:45;;;;;;;9.70;5.40;;;;;;;22.38;30.95;101552.98;1664127;84;21525;-68
2021/10/31 10:55:28;;;;;;;9.33;6.30;;;;;;;22.41;30.94;101544.56;1662974;84;20994;-69
2021/10/31 10:57:59;;;;;;;11.73;7.13;;;;;;;22.49;30.71;101543.41;1664307;84;21074;-68
2021/10/31 11:00:33;;;;;;;;;;;;;;;22.48;30.83;101534.64;1666677;84;21086;-69
2021/10/31 11:03:14;;;;;;;8.10;5.43;;;;;;;22.71;30.55;101529.02;1665386;84;20361;-70
2021/10/31 11:05:45;;;;;;;9.48;5.33;;;;;;;22.75;30.35;101542.14;1694004;83;21118;-70
2021/10/31 11:08:14;;;;;;;8.70;5.73;;;;;;;22.48;30.68;101531.98;1694810;83;21096;-69
2021/10/31 11:10:48;;;;;;;10.30;6.00;;;;;;;22.58;30.74;101518.93;1694119;83;21639;-69
2021/10/31 11:13:15;;;;;;;8.87;6.30;;;;;;;22.77;30.51;101522.79;1704434;83;21157;-70
2021/10/31 11:15:42;;;;;;;8.20;5.67;;;;;;;22.90;30.31;101519.06;1702119;82;21129;-71
2021/10/31 11:18:09;;;;;;;8.43;5.20;;;;;;;22.87;30.29;101515.01;1679014;83;21069;-70
2021/10/31 11:20:39;;;;;;;9.10;5.90;;;;;;;22.87;30.35;101514.20;1676566;83;20972;-70
2021/10/31 11:23:08;;;;;;;9.23;5.70;;;;;;;22.79;30.38;101516.70;1691415;83;21067;-70
2021/10/31 11:25:37;;;;;;;9.20;5.57;;;;;;;22.82;30.27;101511.73;1698205;83;21146;-70
2021/10/31 11:28:08;;;;;;;7.57;5.23;;;;;;;22.72;30.28;101521.33;1704486;83;20972;-72
2021/10/31 11:30:37;;;;;;;49.13;41.83;;;;;;;22.44;30.64;101512.75;1705356;82;20996;-70